createdAt,value
2023-05-19T00:00:02.254Z,9.92
2023-05-19T00:02:39.793Z,9.85
2023-05-19T00:05:07.958Z,9.83
2023-05-19T00:07:38.584Z,9.77
2023-05-19T00:10:07.178Z,9.74
2023-05-19T00:12:36.109Z,9.71
2023-05-19T00:15:04.124Z,9.69
2023-05-19T00:17:31.671Z,9.61
2023-05-19T00:19:59.209Z,9.60
2023-05-19T00:22:26.732Z,9.57
2023-05-19T00:24:54.343Z,9.52
2023-05-19T00:27:21.838Z,9.53
2023-05-19T00:29:49.441Z,9.51
2023-05-19T00:32:17.065Z,9.54
2023-05-19T00:34:44.722Z,9.57
2023-05-19T00:37:12.277Z,9.58
2023-05-19T00:39:39.765Z,9.60
2023-05-19T00:42:07.385Z,9.56
2023-05-19T00:44:41.087Z,9.55
2023-05-19T00:47:08.977Z,9.57
2023-05-19T00:49:36.627Z,9.59
2023-05-19T00:52:06.794Z,9.60
2023-05-19T00:54:35.025Z,9.54
2023-05-19T00:57:03.728Z,9.48
2023-05-19T00:59:31.293Z,9.44
2023-05-19T01:01:59.126Z,9.40
2023-05-19T01:04:26.768Z,9.32
2023-05-19T01:06:57.351Z,9.27
2023-05-19T01:09:24.909Z,9.21
2023-05-19T01:11:52.783Z,9.19
2023-05-19T01:14:20.857Z,9.14
2023-05-19T01:16:58.614Z,9.10
2023-05-19T01:19:55.279Z,9.02
2023-05-19T01:23:01.279Z,9.02
2023-05-19T01:25:59.432Z,8.98
2023-05-19T01:28:51.906Z,8.94
2023-05-19T01:31:24.074Z,8.94
2023-05-19T01:33:53.804Z,8.92
2023-05-19T01:36:23.320Z,8.87
2023-05-19T01:38:53.409Z,8.84
2023-05-19T01:41:22.690Z,8.82
2023-05-19T01:43:52.506Z,8.79
2023-05-19T01:46:21.585Z,8.78
2023-05-19T01:48:49.489Z,8.76
2023-05-19T01:51:17.270Z,8.71
2023-05-19T01:53:44.851Z,8.69
2023-05-19T01:56:17.225Z,8.71
2023-05-19T01:58:47.587Z,8.66
2023-05-19T02:01:38.157Z,8.66
2023-05-19T02:04:32.530Z,8.67
2023-05-19T02:07:15.889Z,8.66
2023-05-19T02:10:02.901Z,8.69
2023-05-19T02:12:37.799Z,8.66
2023-05-19T02:15:12.529Z,8.63
2023-05-19T02:17:43.314Z,8.65
2023-05-19T02:20:12.040Z,8.69
2023-05-19T02:22:39.758Z,8.65
2023-05-19T02:25:08.635Z,8.62
2023-05-19T02:27:38.666Z,8.66
2023-05-19T02:30:08.409Z,8.69
2023-05-19T02:32:37.841Z,8.64
2023-05-19T02:35:06.077Z,8.61
2023-05-19T02:37:34.112Z,8.61
2023-05-19T02:40:01.652Z,8.61
2023-05-19T02:42:30.711Z,8.62
2023-05-19T02:44:58.240Z,8.61
2023-05-19T02:47:25.912Z,8.58
2023-05-19T02:49:53.446Z,8.56
2023-05-19T02:52:22.226Z,8.53
2023-05-19T02:54:49.784Z,8.49
2023-05-19T02:57:17.669Z,8.51
2023-05-19T02:59:45.195Z,8.49
2023-05-19T03:02:12.850Z,8.50
2023-05-19T03:04:43.169Z,8.45
2023-05-19T03:07:10.948Z,8.42
2023-05-19T03:09:38.590Z,8.40
2023-05-19T03:12:07.758Z,8.38
2023-05-19T03:14:37.908Z,8.38
2023-05-19T03:17:08.009Z,8.43
2023-05-19T03:19:35.969Z,8.44
2023-05-19T03:22:03.634Z,8.43
2023-05-19T03:24:31.894Z,8.35
2023-05-19T03:26:59.606Z,8.30
2023-05-19T03:29:27.174Z,8.31
2023-05-19T03:31:55.129Z,8.36
2023-05-19T03:34:22.924Z,8.37
2023-05-19T03:36:51.204Z,8.41
2023-05-19T03:39:18.957Z,8.42
2023-05-19T03:41:49.045Z,8.38
2023-05-19T03:44:16.751Z,8.37
2023-05-19T03:46:45.243Z,8.36
2023-05-19T03:49:31.444Z,8.34
2023-05-19T03:52:21.910Z,8.31
2023-05-19T03:54:57.957Z,8.31
2023-05-19T03:57:26.066Z,8.27
2023-05-19T03:59:54.494Z,8.31
2023-05-19T04:02:22.241Z,8.33
2023-05-19T04:04:51.407Z,8.33
2023-05-19T04:07:18.955Z,8.34
2023-05-19T04:09:46.737Z,8.35
2023-05-19T04:12:14.322Z,8.33
2023-05-19T04:14:41.893Z,8.33
2023-05-19T04:17:11.094Z,8.38
2023-05-19T04:19:38.613Z,8.43
2023-05-19T04:22:06.286Z,8.44
2023-05-19T04:24:33.999Z,8.46
2023-05-19T04:27:02.759Z,8.47
2023-05-19T04:29:30.543Z,8.55
2023-05-19T04:31:58.135Z,8.62
2023-05-19T04:34:25.826Z,8.73
2023-05-19T04:36:53.667Z,8.76
2023-05-19T04:39:22.917Z,8.85
2023-05-19T04:41:54.234Z,8.87
2023-05-19T04:44:21.833Z,8.95
2023-05-19T04:46:54.617Z,9.05
2023-05-19T04:49:24.513Z,9.05
2023-05-19T04:51:55.486Z,8.94
2023-05-19T04:54:27.386Z,9.04
2023-05-19T04:56:56.409Z,9.16
2023-05-19T04:59:25.920Z,9.06
2023-05-19T05:01:53.564Z,8.94
2023-05-19T05:04:21.813Z,8.63
2023-05-19T05:06:49.800Z,8.72
2023-05-19T05:09:20.057Z,9.17
2023-05-19T05:11:48.226Z,9.46
2023-05-19T05:14:16.496Z,9.81
2023-05-19T05:16:44.691Z,10.19
2023-05-19T05:19:17.089Z,10.44
2023-05-19T05:21:45.969Z,10.65
2023-05-19T05:24:17.143Z,10.73
2023-05-19T05:26:50.625Z,10.82
2023-05-19T05:29:18.280Z,10.93
2023-05-19T05:31:45.959Z,10.89
2023-05-19T05:34:13.967Z,10.94
2023-05-19T05:36:41.563Z,11.36
2023-05-19T05:39:09.666Z,11.37
2023-05-19T05:41:38.787Z,11.36
2023-05-19T05:44:11.301Z,11.44
2023-05-19T05:46:41.603Z,11.58
2023-05-19T05:49:10.437Z,11.89
2023-05-19T05:51:42.938Z,12.15
2023-05-19T05:54:13.489Z,12.21
2023-05-19T05:56:46.110Z,12.38
2023-05-19T05:59:15.489Z,12.44
2023-05-19T06:01:44.638Z,12.51
2023-05-19T06:04:12.614Z,13.06
2023-05-19T06:06:40.301Z,13.30
2023-05-19T06:09:09.023Z,14.45
2023-05-19T06:11:36.922Z,13.93
2023-05-19T06:14:05.517Z,13.20
2023-05-19T06:16:53.546Z,12.71
2023-05-19T06:19:21.818Z,12.37
2023-05-19T06:21:49.490Z,12.08
2023-05-19T06:24:17.239Z,12.16
2023-05-19T06:26:44.753Z,11.66
2023-05-19T06:29:12.433Z,11.78
2023-05-19T06:31:40.560Z,11.94
2023-05-19T06:34:12.598Z,11.83
2023-05-19T06:36:41.649Z,11.86
2023-05-19T06:39:10.185Z,12.85
2023-05-19T06:41:38.084Z,12.93
2023-05-19T06:44:09.194Z,13.67
2023-05-19T06:46:36.936Z,13.85
2023-05-19T06:49:05.226Z,13.76
2023-05-19T06:51:37.713Z,12.98
2023-05-19T06:54:05.300Z,12.60
2023-05-19T06:56:32.998Z,12.70
2023-05-19T06:59:00.817Z,12.45
2023-05-19T07:01:34.492Z,12.81
2023-05-19T07:04:03.110Z,12.59
2023-05-19T07:06:31.434Z,12.57
2023-05-19T07:08:59.141Z,12.52
2023-05-19T07:11:27.263Z,12.38
2023-05-19T07:13:55.035Z,12.69
2023-05-19T07:16:27.728Z,12.64
2023-05-19T07:18:56.012Z,12.82
2023-05-19T07:21:23.582Z,12.74
2023-05-19T07:23:51.654Z,12.81
2023-05-19T07:26:19.275Z,12.99
2023-05-19T07:28:46.802Z,13.03
2023-05-19T07:31:14.340Z,13.16
2023-05-19T07:33:41.840Z,13.45
2023-05-19T07:36:09.512Z,14.21
2023-05-19T07:38:37.229Z,14.22
2023-05-19T07:41:05.993Z,13.99
2023-05-19T07:43:33.636Z,14.85
2023-05-19T07:46:01.149Z,15.55
2023-05-19T07:48:29.663Z,15.59
2023-05-19T07:50:57.498Z,15.32
2023-05-19T07:53:25.027Z,14.89
2023-05-19T07:55:52.665Z,15.36
2023-05-19T07:58:20.796Z,15.71
2023-05-19T08:00:48.388Z,15.76
2023-05-19T08:03:18.398Z,15.83
2023-05-19T08:05:46.517Z,15.34
2023-05-19T08:09:19.471Z,15.79
2023-05-19T08:11:50.296Z,15.07
2023-05-19T08:14:17.760Z,15.69
2023-05-19T08:16:46.290Z,15.01
2023-05-19T08:19:13.936Z,14.88
2023-05-19T08:21:42.583Z,15.22
2023-05-19T08:24:10.182Z,15.47
2023-05-19T08:26:38.052Z,14.96
2023-05-19T08:29:05.833Z,15.28
2023-05-19T08:31:33.474Z,15.79
2023-05-19T08:34:01.117Z,15.98
2023-05-19T08:36:29.614Z,16.53
2023-05-19T08:38:57.094Z,16.77
2023-05-19T08:41:24.657Z,16.41
2023-05-19T08:43:52.180Z,16.27
2023-05-19T08:46:22.223Z,15.83
2023-05-19T08:48:54.544Z,16.29
2023-05-19T08:51:39.326Z,16.62
2023-05-19T08:54:15.976Z,16.54
2023-05-19T08:56:45.712Z,16.31
2023-05-19T08:59:17.410Z,15.51
2023-05-19T09:01:46.644Z,15.59
2023-05-19T09:04:16.015Z,15.59
2023-05-19T09:06:44.836Z,15.36
2023-05-19T09:09:12.737Z,15.88
2023-05-19T09:11:40.278Z,15.57
2023-05-19T09:14:07.854Z,15.63
2023-05-19T09:16:35.833Z,16.26
2023-05-19T09:19:03.405Z,15.70
2023-05-19T09:21:32.097Z,15.81
2023-05-19T09:24:06.576Z,16.01
2023-05-19T09:26:42.006Z,16.05
2023-05-19T09:29:27.435Z,15.92
2023-05-19T09:32:00.981Z,16.49
2023-05-19T09:34:28.834Z,16.59
2023-05-19T09:36:57.895Z,16.64
2023-05-19T09:39:26.350Z,17.00
2023-05-19T09:41:55.473Z,17.71
2023-05-19T09:44:24.395Z,17.48
2023-05-19T09:46:53.204Z,17.00
2023-05-19T09:49:25.435Z,17.66
2023-05-19T09:52:02.364Z,16.41
2023-05-19T09:54:32.526Z,16.35
2023-05-19T09:57:05.245Z,17.06
2023-05-19T09:59:34.903Z,17.20
2023-05-19T10:02:03.020Z,16.58
2023-05-19T10:04:31.898Z,17.00
2023-05-19T10:07:00.223Z,17.75
2023-05-19T10:09:29.730Z,17.50
2023-05-19T10:11:59.019Z,17.29
2023-05-19T10:14:28.862Z,17.13
2023-05-19T10:16:58.272Z,16.97
2023-05-19T10:19:28.942Z,16.87
2023-05-19T10:21:57.105Z,17.28
2023-05-19T10:24:24.632Z,17.33
2023-05-19T10:26:58.751Z,17.05
2023-05-19T10:29:30.801Z,17.09
2023-05-19T10:32:03.289Z,16.88
2023-05-19T10:34:50.582Z,16.84
2023-05-19T10:37:33.921Z,16.81
2023-05-19T10:40:10.097Z,16.45
2023-05-19T10:43:11.952Z,16.27
2023-05-19T10:45:49.383Z,16.21
2023-05-19T10:48:17.604Z,16.19
2023-05-19T10:50:46.864Z,16.13
2023-05-19T10:53:18.698Z,16.55
2023-05-19T10:55:49.850Z,16.18
2023-05-19T10:58:40.465Z,16.24
2023-05-19T11:01:12.080Z,16.16
2023-05-19T11:03:47.521Z,15.76
2023-05-19T11:06:38.832Z,15.93
2023-05-19T11:09:09.364Z,15.79
2023-05-19T11:11:46.662Z,15.73
2023-05-19T11:14:17.425Z,15.35
2023-05-19T11:16:48.722Z,15.36
2023-05-19T11:19:30.653Z,15.65
2023-05-19T11:22:10.773Z,15.87
2023-05-19T11:24:52.426Z,16.23
2023-05-19T11:27:34.060Z,16.37
2023-05-19T11:30:11.650Z,16.45
2023-05-19T11:32:42.045Z,16.36
2023-05-19T11:35:10.550Z,16.47
2023-05-19T11:37:38.154Z,16.15
2023-05-19T11:40:07.488Z,16.47
2023-05-19T11:42:37.102Z,16.78
2023-05-19T11:45:05.386Z,16.61
2023-05-19T11:47:46.516Z,16.87
2023-05-19T11:50:23.426Z,16.91
2023-05-19T11:52:52.192Z,16.70
2023-05-19T11:55:23.908Z,15.92
2023-05-19T11:58:05.245Z,15.80
2023-05-19T12:00:39.706Z,15.86
2023-05-19T12:03:09.107Z,15.62
2023-05-19T12:05:41.802Z,15.62
2023-05-19T12:08:11.869Z,15.81
2023-05-19T12:10:40.601Z,15.45
2023-05-19T12:13:09.974Z,15.25
2023-05-19T12:15:38.113Z,15.28
2023-05-19T12:18:05.842Z,15.49
2023-05-19T12:20:36.212Z,15.31
2023-05-19T12:23:04.735Z,15.20
2023-05-19T12:25:32.919Z,15.11
2023-05-19T12:28:03.329Z,15.26
2023-05-19T12:30:33.150Z,15.17
2023-05-19T12:33:02.424Z,15.00
2023-05-19T12:35:34.063Z,14.88
2023-05-19T12:38:05.621Z,14.75
2023-05-19T12:40:37.571Z,14.86
2023-05-19T12:43:07.005Z,15.11
2023-05-19T12:45:36.890Z,15.12
2023-05-19T12:48:16.863Z,14.90
2023-05-19T12:50:48.649Z,15.06
2023-05-19T12:53:16.369Z,15.15
2023-05-19T12:55:45.932Z,15.20
2023-05-19T12:58:13.626Z,15.24
2023-05-19T13:00:47.544Z,14.99
2023-05-19T13:03:20.649Z,14.97
2023-05-19T13:05:50.751Z,14.99
2023-05-19T13:08:24.199Z,14.98
2023-05-19T13:10:51.848Z,15.02
2023-05-19T13:13:19.495Z,14.96
2023-05-19T13:15:49.210Z,14.89
2023-05-19T13:18:17.315Z,14.95
2023-05-19T13:20:45.811Z,15.13
2023-05-19T13:23:14.522Z,15.26
2023-05-19T13:25:42.737Z,15.37
2023-05-19T13:28:10.960Z,15.36
2023-05-19T13:30:40.514Z,15.55
2023-05-19T13:33:08.470Z,15.36
2023-05-19T13:35:39.282Z,15.33
2023-05-19T13:38:10.483Z,15.31
2023-05-19T13:40:39.895Z,15.21
2023-05-19T13:43:08.821Z,15.37
2023-05-19T13:45:36.713Z,15.31
2023-05-19T13:48:04.617Z,15.11
2023-05-19T13:50:32.225Z,15.17
2023-05-19T13:53:00.140Z,15.24
2023-05-19T13:55:27.774Z,15.37
2023-05-19T13:57:55.473Z,15.69
2023-05-19T14:00:23.207Z,15.61
2023-05-19T14:02:50.794Z,15.65
2023-05-19T14:05:18.528Z,15.81
2023-05-19T14:07:46.462Z,15.55
2023-05-19T14:10:14.043Z,15.51
2023-05-19T14:13:07.979Z,15.29
2023-05-19T14:15:29.347Z,15.18
2023-05-19T14:17:57.017Z,14.89
2023-05-19T14:20:24.507Z,14.83
2023-05-19T14:22:52.151Z,15.02
2023-05-19T14:25:19.683Z,15.25
2023-05-19T14:27:47.380Z,14.90
2023-05-19T14:30:14.796Z,15.04
2023-05-19T14:32:42.359Z,14.99
2023-05-19T14:35:10.043Z,15.11
2023-05-19T14:37:37.568Z,15.12
2023-05-19T14:40:05.617Z,14.87
2023-05-19T14:42:33.538Z,14.91
2023-05-19T14:45:01.217Z,14.91
2023-05-19T14:47:28.734Z,14.87
2023-05-19T14:49:56.430Z,14.51
2023-05-19T14:52:24.013Z,14.66
2023-05-19T14:54:51.485Z,14.61
2023-05-19T14:57:19.048Z,14.38
2023-05-19T14:59:46.629Z,14.34
2023-05-19T15:02:14.174Z,14.12
2023-05-19T15:04:41.647Z,14.13
2023-05-19T15:07:10.634Z,14.06
2023-05-19T15:09:38.802Z,14.17
2023-05-19T15:12:06.498Z,14.40
2023-05-19T15:14:34.068Z,14.52
2023-05-19T15:17:01.735Z,14.59
2023-05-19T15:19:29.456Z,14.50
2023-05-19T15:21:56.957Z,14.59
2023-05-19T15:24:24.584Z,14.34
2023-05-19T15:26:52.528Z,14.19
2023-05-19T15:29:20.155Z,14.21
2023-05-19T15:31:53.627Z,13.99
2023-05-19T15:34:21.259Z,14.12
2023-05-19T15:36:48.746Z,14.35
2023-05-19T15:39:16.332Z,14.41
2023-05-19T15:41:43.911Z,14.20
2023-05-19T15:44:11.582Z,14.35
2023-05-19T15:46:39.144Z,14.18
2023-05-19T15:49:06.705Z,14.16
2023-05-19T15:51:34.814Z,13.95
2023-05-19T15:54:02.370Z,13.87
2023-05-19T15:56:29.850Z,13.64
2023-05-19T15:58:57.413Z,13.67
2023-05-19T16:01:25.248Z,13.61
2023-05-19T16:03:53.083Z,13.57
2023-05-19T16:06:21.057Z,13.52
2023-05-19T16:08:48.684Z,13.59
2023-05-19T16:11:16.204Z,13.54
2023-05-19T16:13:43.720Z,13.54
2023-05-19T16:16:11.297Z,13.56
2023-05-19T16:18:38.865Z,13.41
2023-05-19T16:21:06.613Z,13.34
2023-05-19T16:23:34.084Z,13.14
2023-05-19T16:26:01.722Z,13.07
2023-05-19T16:28:29.271Z,12.97
2023-05-19T16:31:00.453Z,13.02
2023-05-19T16:33:28.519Z,13.12
2023-05-19T16:35:57.674Z,13.06
2023-05-19T16:38:25.253Z,13.03
2023-05-19T16:40:52.956Z,13.04
2023-05-19T16:43:20.613Z,13.05
2023-05-19T16:45:48.152Z,13.14
2023-05-19T16:48:15.825Z,12.98
2023-05-19T16:50:43.333Z,13.10
2023-05-19T16:53:10.996Z,13.15
2023-05-19T16:55:38.485Z,13.20
2023-05-19T16:58:06.089Z,13.08
2023-05-19T17:00:33.914Z,13.25
2023-05-19T17:03:01.634Z,12.96
2023-05-19T17:05:29.254Z,12.99
2023-05-19T17:07:56.756Z,13.16
2023-05-19T17:10:24.313Z,13.01
2023-05-19T17:12:51.855Z,12.85
2023-05-19T17:15:19.508Z,12.83
2023-05-19T17:17:46.945Z,12.71
2023-05-19T17:20:14.593Z,12.62
2023-05-19T17:22:42.161Z,12.67
2023-05-19T17:25:10.042Z,12.56
2023-05-19T17:27:37.674Z,12.57
2023-05-19T17:30:05.714Z,12.43
2023-05-19T17:32:35.998Z,12.41
2023-05-19T17:35:05.532Z,12.32
2023-05-19T17:37:33.408Z,12.34
2023-05-19T17:40:01.119Z,12.54
2023-05-19T17:42:29.295Z,12.45
2023-05-19T17:44:56.833Z,12.46
2023-05-19T17:47:24.501Z,12.20
2023-05-19T17:49:53.203Z,12.12
2023-05-19T17:52:21.702Z,12.24
2023-05-19T17:54:50.673Z,12.27
2023-05-19T17:57:18.723Z,12.23
2023-05-19T17:59:46.737Z,12.13
2023-05-19T18:02:15.740Z,12.06
2023-05-19T18:04:43.967Z,12.17
2023-05-19T18:07:12.237Z,12.02
2023-05-19T18:09:43.772Z,12.06
2023-05-19T18:12:11.260Z,11.97
2023-05-19T18:14:39.082Z,11.83
2023-05-19T18:17:06.721Z,11.79
2023-05-19T18:19:34.302Z,11.79
2023-05-19T18:22:01.878Z,11.74
2023-05-19T18:24:29.410Z,11.74
2023-05-19T18:26:57.062Z,11.72
2023-05-19T18:29:24.544Z,11.85
2023-05-19T18:31:52.097Z,11.89
2023-05-19T18:34:19.625Z,12.02
2023-05-19T18:36:47.168Z,11.77
2023-05-19T18:39:14.698Z,11.79
2023-05-19T18:41:42.982Z,11.70
2023-05-19T18:44:11.634Z,12.00
2023-05-19T18:46:39.292Z,11.68
2023-05-19T18:49:06.899Z,11.70
2023-05-19T18:51:36.175Z,11.88
2023-05-19T18:54:03.724Z,11.91
2023-05-19T18:56:33.393Z,11.76
2023-05-19T18:59:00.844Z,11.58
2023-05-19T19:01:28.740Z,11.58
2023-05-19T19:03:56.462Z,11.61
2023-05-19T19:06:24.078Z,11.80
2023-05-19T19:08:51.665Z,11.70
2023-05-19T19:11:19.118Z,11.62
2023-05-19T19:13:47.134Z,11.47
2023-05-19T19:16:14.726Z,11.52
2023-05-19T19:18:42.274Z,11.45
2023-05-19T19:21:09.920Z,11.48
2023-05-19T19:23:38.194Z,11.42
2023-05-19T19:26:08.578Z,11.43
2023-05-19T19:28:36.178Z,11.45
2023-05-19T19:31:03.730Z,11.40
2023-05-19T19:33:31.389Z,11.55
2023-05-19T19:35:59.010Z,11.37
2023-05-19T19:38:26.552Z,11.36
2023-05-19T19:40:54.092Z,11.34
2023-05-19T19:43:21.681Z,11.24
2023-05-19T19:45:49.772Z,11.29
2023-05-19T19:48:17.259Z,11.27
2023-05-19T19:50:44.895Z,11.23
2023-05-19T19:53:12.401Z,11.24
2023-05-19T19:55:40.192Z,11.21
2023-05-19T19:58:07.901Z,11.32
2023-05-19T20:00:35.671Z,11.14
2023-05-19T20:03:05.869Z,11.12
2023-05-19T20:05:33.785Z,11.05
2023-05-19T20:08:01.358Z,11.10
2023-05-19T20:10:29.026Z,11.09
2023-05-19T20:12:58.926Z,11.12
2023-05-19T20:15:27.050Z,11.14
2023-05-19T20:17:54.566Z,11.11
2023-05-19T20:20:22.158Z,11.16
2023-05-19T20:22:49.745Z,11.15
2023-05-19T20:25:17.225Z,11.05
2023-05-19T20:27:44.783Z,11.01
2023-05-19T20:30:12.362Z,10.98
2023-05-19T20:32:40.250Z,10.98
2023-05-19T20:35:08.795Z,10.95
2023-05-19T20:37:36.847Z,10.83
2023-05-19T20:40:04.811Z,10.83
2023-05-19T20:42:32.618Z,10.83
2023-05-19T20:45:00.659Z,10.87
2023-05-19T20:47:30.258Z,10.82
2023-05-19T20:49:58.970Z,10.88
2023-05-19T20:52:27.131Z,11.04
2023-05-19T20:54:54.704Z,11.13
2023-05-19T20:57:22.232Z,11.25
2023-05-19T20:59:49.837Z,11.27
2023-05-19T21:02:17.342Z,11.14
2023-05-19T21:04:46.152Z,11.01
2023-05-19T21:07:13.908Z,11.29
2023-05-19T21:09:42.867Z,11.15
2023-05-19T21:12:10.745Z,11.18
2023-05-19T21:14:38.250Z,11.14
2023-05-19T21:17:07.265Z,11.23
2023-05-19T21:19:36.958Z,11.19
2023-05-19T21:22:04.827Z,11.28
2023-05-19T21:24:32.518Z,11.34
2023-05-19T21:27:00.058Z,11.30
2023-05-19T21:29:27.666Z,11.05
2023-05-19T21:31:56.322Z,11.03
2023-05-19T21:34:23.865Z,11.18
2023-05-19T21:36:51.384Z,11.17
2023-05-19T21:39:19.025Z,10.91
2023-05-19T21:41:46.553Z,10.99
2023-05-19T21:44:14.017Z,10.99
2023-05-19T21:46:41.593Z,10.95
2023-05-19T21:49:09.203Z,10.83
2023-05-19T21:51:36.934Z,10.78
2023-05-19T21:54:04.501Z,10.81
2023-05-19T21:56:32.040Z,10.76
2023-05-19T21:58:59.608Z,10.75
2023-05-19T22:01:27.781Z,10.89
2023-05-19T22:03:55.593Z,10.82
2023-05-19T22:06:23.324Z,10.89
2023-05-19T22:08:50.924Z,10.90
2023-05-19T22:11:18.464Z,10.78
2023-05-19T22:13:46.009Z,10.78
2023-05-19T22:16:13.540Z,10.78
2023-05-19T22:18:41.147Z,10.84
2023-05-19T22:21:08.681Z,10.80
2023-05-19T22:23:36.120Z,10.77
2023-05-19T22:26:03.701Z,10.73
2023-05-19T22:28:31.238Z,10.81
2023-05-19T22:30:58.767Z,10.83
2023-05-19T22:33:26.383Z,10.77
2023-05-19T22:35:53.963Z,10.76
2023-05-19T22:38:21.540Z,10.70
2023-05-19T22:40:50.111Z,10.76
2023-05-19T22:43:17.668Z,10.69
2023-05-19T22:45:45.384Z,10.67
2023-05-19T22:48:12.920Z,10.72
2023-05-19T22:50:40.470Z,10.63
2023-05-19T22:53:08.121Z,10.62
2023-05-19T22:55:35.962Z,10.53
2023-05-19T22:58:03.765Z,10.51
2023-05-19T23:00:31.419Z,10.55
2023-05-19T23:02:59.441Z,10.53
2023-05-19T23:05:26.999Z,10.47
2023-05-19T23:07:54.519Z,10.45
2023-05-19T23:10:22.050Z,10.40
2023-05-19T23:12:50.171Z,10.47
2023-05-19T23:15:17.807Z,10.52
2023-05-19T23:17:45.608Z,10.64
2023-05-19T23:20:13.523Z,10.74
2023-05-19T23:22:41.170Z,10.76
2023-05-19T23:25:08.830Z,10.75
2023-05-19T23:27:36.736Z,10.81
2023-05-19T23:30:05.073Z,10.96
2023-05-19T23:32:32.634Z,10.99
2023-05-19T23:35:13.313Z,11.05
2023-05-19T23:37:40.985Z,10.95
2023-05-19T23:40:09.248Z,10.69
2023-05-19T23:42:37.115Z,10.44
2023-05-19T23:45:05.085Z,10.29
2023-05-19T23:47:32.836Z,10.18
2023-05-19T23:50:00.473Z,10.14
2023-05-19T23:52:28.045Z,10.02
2023-05-19T23:54:55.678Z,9.98
2023-05-19T23:57:23.226Z,9.95
2023-05-19T23:59:50.886Z,9.98
